sensor_id;sensor_type;location;lat;lon;timestamp;P1;durP1;ratioP1;P2;durP2;ratioP2
24517;SDS011;12678;51.336;12.406;2023-05-10T00:01:07;4.65;;;3.20;;
24517;SDS011;12678;51.336;12.406;2023-05-10T00:03:33;5.30;;;3.33;;
24517;SDS011;12678;51.336;12.406;2023-05-10T00:05:58;5.93;;;3.28;;
24517;SDS011;12678;51.336;12.406;2023-05-10T00:08:24;7.32;;;3.15;;
24517;SDS011;12678;51.336;12.406;2023-05-10T00:10:50;4.60;;;3.10;;
24517;SDS011;12678;51.336;12.406;2023-05-10T00:13:15;4.22;;;2.92;;
24517;SDS011;12678;51.336;12.406;2023-05-10T00:15:41;4.85;;;2.58;;
24517;SDS011;12678;51.336;12.406;2023-05-10T00:18:07;6.78;;;3.65;;
24517;SDS011;12678;51.336;12.406;2023-05-10T00:20:33;4.63;;;3.30;;
24517;SDS011;12678;51.336;12.406;2023-05-10T00:22:59;5.10;;;3.13;;
24517;SDS011;12678;51.336;12.406;2023-05-10T00:25:24;6.80;;;2.90;;
24517;SDS011;12678;51.336;12.406;2023-05-10T00:27:50;9.75;;;2.88;;
24517;SDS011;12678;51.336;12.406;2023-05-10T00:30:16;5.13;;;3.20;;
24517;SDS011;12678;51.336;12.406;2023-05-10T00:32:42;6.18;;;3.53;;
24517;SDS011;12678;51.336;12.406;2023-05-10T00:35:08;6.10;;;3.80;;
24517;SDS011;12678;51.336;12.406;2023-05-10T00:37:34;8.10;;;3.35;;
24517;SDS011;12678;51.336;12.406;2023-05-10T00:40:00;8.23;;;3.50;;
24517;SDS011;12678;51.336;12.406;2023-05-10T00:42:25;4.72;;;3.22;;
24517;SDS011;12678;51.336;12.406;2023-05-10T00:44:51;4.82;;;3.22;;
24517;SDS011;12678;51.336;12.406;2023-05-10T00:47:17;4.65;;;3.08;;
24517;SDS011;12678;51.336;12.406;2023-05-10T00:49:43;4.32;;;2.70;;
24517;SDS011;12678;51.336;12.406;2023-05-10T00:52:09;7.40;;;3.38;;
24517;SDS011;12678;51.336;12.406;2023-05-10T00:54:35;5.68;;;2.83;;
24517;SDS011;12678;51.336;12.406;2023-05-10T00:57:02;3.72;;;2.92;;
24517;SDS011;12678;51.336;12.406;2023-05-10T00:59:28;7.05;;;3.97;;
24517;SDS011;12678;51.336;12.406;2023-05-10T01:01:54;6.22;;;3.40;;
24517;SDS011;12678;51.336;12.406;2023-05-10T01:04:20;5.50;;;3.10;;
24517;SDS011;12678;51.336;12.406;2023-05-10T01:06:53;7.03;;;3.53;;
24517;SDS011;12678;51.336;12.406;2023-05-10T01:09:19;7.97;;;2.90;;
24517;SDS011;12678;51.336;12.406;2023-05-10T01:11:46;7.30;;;3.20;;
24517;SDS011;12678;51.336;12.406;2023-05-10T01:14:12;5.40;;;3.33;;
24517;SDS011;12678;51.336;12.406;2023-05-10T01:16:40;5.57;;;3.28;;
24517;SDS011;12678;51.336;12.406;2023-05-10T01:19:11;4.97;;;3.30;;
24517;SDS011;12678;51.336;12.406;2023-05-10T01:21:43;4.75;;;3.05;;
24517;SDS011;12678;51.336;12.406;2023-05-10T01:26:52;4.57;;;3.15;;
24517;SDS011;12678;51.336;12.406;2023-05-10T01:36:03;3.95;;;2.92;;
24517;SDS011;12678;51.336;12.406;2023-05-10T01:41:12;5.57;;;3.20;;
24517;SDS011;12678;51.336;12.406;2023-05-10T01:46:39;7.70;;;3.00;;
24517;SDS011;12678;51.336;12.406;2023-05-10T01:49:09;4.65;;;3.05;;
24517;SDS011;12678;51.336;12.406;2023-05-10T01:51:45;4.47;;;2.78;;
24517;SDS011;12678;51.336;12.406;2023-05-10T01:54:16;5.97;;;2.85;;
24517;SDS011;12678;51.336;12.406;2023-05-10T01:56:44;6.28;;;3.28;;
24517;SDS011;12678;51.336;12.406;2023-05-10T01:59:29;7.07;;;3.08;;
24517;SDS011;12678;51.336;12.406;2023-05-10T02:02:01;9.65;;;3.22;;
24517;SDS011;12678;51.336;12.406;2023-05-10T02:04:27;5.10;;;3.40;;
24517;SDS011;12678;51.336;12.406;2023-05-10T02:06:54;6.10;;;2.92;;
24517;SDS011;12678;51.336;12.406;2023-05-10T02:09:21;5.38;;;2.85;;
24517;SDS011;12678;51.336;12.406;2023-05-10T02:11:48;4.88;;;3.22;;
24517;SDS011;12678;51.336;12.406;2023-05-10T02:14:15;4.43;;;3.10;;
24517;SDS011;12678;51.336;12.406;2023-05-10T02:16:42;4.20;;;2.75;;
24517;SDS011;12678;51.336;12.406;2023-05-10T02:19:09;8.98;;;3.30;;
24517;SDS011;12678;51.336;12.406;2023-05-10T02:21:37;6.10;;;3.30;;
24517;SDS011;12678;51.336;12.406;2023-05-10T02:24:04;5.10;;;2.60;;
24517;SDS011;12678;51.336;12.406;2023-05-10T02:26:31;5.43;;;2.97;;
24517;SDS011;12678;51.336;12.406;2023-05-10T02:28:59;3.00;;;2.40;;
24517;SDS011;12678;51.336;12.406;2023-05-10T02:31:28;4.72;;;3.08;;
24517;SDS011;12678;51.336;12.406;2023-05-10T02:33:58;5.38;;;2.88;;
24517;SDS011;12678;51.336;12.406;2023-05-10T02:36:26;5.53;;;3.30;;
24517;SDS011;12678;51.336;12.406;2023-05-10T02:38:52;5.95;;;3.05;;
24517;SDS011;12678;51.336;12.406;2023-05-10T02:41:19;4.78;;;3.28;;
24517;SDS011;12678;51.336;12.406;2023-05-10T02:43:49;9.13;;;2.63;;
24517;SDS011;12678;51.336;12.406;2023-05-10T02:46:16;7.35;;;3.15;;
24517;SDS011;12678;51.336;12.406;2023-05-10T02:48:42;12.65;;;2.85;;
24517;SDS011;12678;51.336;12.406;2023-05-10T02:51:08;6.32;;;3.40;;
24517;SDS011;12678;51.336;12.406;2023-05-10T02:53:38;10.13;;;4.13;;
24517;SDS011;12678;51.336;12.406;2023-05-10T02:56:10;6.70;;;3.92;;
24517;SDS011;12678;51.336;12.406;2023-05-10T02:58:39;7.85;;;3.70;;
24517;SDS011;12678;51.336;12.406;2023-05-10T03:01:05;4.95;;;3.20;;
24517;SDS011;12678;51.336;12.406;2023-05-10T03:03:32;5.93;;;3.22;;
24517;SDS011;12678;51.336;12.406;2023-05-10T03:05:58;5.32;;;3.33;;
24517;SDS011;12678;51.336;12.406;2023-05-10T03:08:24;5.25;;;3.20;;
24517;SDS011;12678;51.336;12.406;2023-05-10T03:10:54;4.72;;;2.72;;
24517;SDS011;12678;51.336;12.406;2023-05-10T03:13:49;4.85;;;3.22;;
24517;SDS011;12678;51.336;12.406;2023-05-10T03:16:29;4.90;;;2.70;;
24517;SDS011;12678;51.336;12.406;2023-05-10T03:21:57;3.72;;;2.78;;
24517;SDS011;12678;51.336;12.406;2023-05-10T03:24:24;5.07;;;3.50;;
24517;SDS011;12678;51.336;12.406;2023-05-10T03:26:53;5.18;;;2.88;;
24517;SDS011;12678;51.336;12.406;2023-05-10T03:29:25;4.88;;;3.35;;
24517;SDS011;12678;51.336;12.406;2023-05-10T03:31:52;4.28;;;3.28;;
24517;SDS011;12678;51.336;12.406;2023-05-10T03:34:23;7.97;;;3.50;;
24517;SDS011;12678;51.336;12.406;2023-05-10T03:36:49;6.07;;;3.08;;
24517;SDS011;12678;51.336;12.406;2023-05-10T03:39:14;6.10;;;3.20;;
24517;SDS011;12678;51.336;12.406;2023-05-10T03:41:40;5.68;;;3.22;;
24517;SDS011;12678;51.336;12.406;2023-05-10T03:44:06;4.75;;;3.42;;
24517;SDS011;12678;51.336;12.406;2023-05-10T03:46:32;5.88;;;3.42;;
24517;SDS011;12678;51.336;12.406;2023-05-10T03:48:58;9.43;;;3.30;;
24517;SDS011;12678;51.336;12.406;2023-05-10T03:51:24;10.88;;;3.28;;
24517;SDS011;12678;51.336;12.406;2023-05-10T03:53:53;5.80;;;3.35;;
24517;SDS011;12678;51.336;12.406;2023-05-10T03:56:19;5.82;;;3.13;;
24517;SDS011;12678;51.336;12.406;2023-05-10T03:58:45;5.53;;;3.40;;
24517;SDS011;12678;51.336;12.406;2023-05-10T04:01:11;5.43;;;3.38;;
24517;SDS011;12678;51.336;12.406;2023-05-10T04:03:37;5.55;;;3.55;;
24517;SDS011;12678;51.336;12.406;2023-05-10T04:06:03;6.05;;;3.20;;
24517;SDS011;12678;51.336;12.406;2023-05-10T04:08:29;5.90;;;3.30;;
24517;SDS011;12678;51.336;12.406;2023-05-10T04:11:04;5.72;;;3.10;;
24517;SDS011;12678;51.336;12.406;2023-05-10T04:13:34;5.28;;;2.67;;
24517;SDS011;12678;51.336;12.406;2023-05-10T04:16:00;4.38;;;2.70;;
24517;SDS011;12678;51.336;12.406;2023-05-10T04:18:27;4.93;;;3.10;;
24517;SDS011;12678;51.336;12.406;2023-05-10T04:20:53;5.50;;;3.13;;
24517;SDS011;12678;51.336;12.406;2023-05-10T04:23:19;7.57;;;3.00;;
24517;SDS011;12678;51.336;12.406;2023-05-10T04:25:45;6.88;;;2.95;;
24517;SDS011;12678;51.336;12.406;2023-05-10T04:28:11;14.48;;;3.03;;
24517;SDS011;12678;51.336;12.406;2023-05-10T04:30:37;8.52;;;3.17;;
24517;SDS011;12678;51.336;12.406;2023-05-10T04:33:03;4.25;;;2.80;;
24517;SDS011;12678;51.336;12.406;2023-05-10T04:35:29;3.85;;;2.80;;
24517;SDS011;12678;51.336;12.406;2023-05-10T04:37:55;4.35;;;3.00;;
24517;SDS011;12678;51.336;12.406;2023-05-10T04:40:20;5.68;;;2.50;;
24517;SDS011;12678;51.336;12.406;2023-05-10T04:42:46;7.35;;;3.72;;
24517;SDS011;12678;51.336;12.406;2023-05-10T04:45:12;4.55;;;2.65;;
24517;SDS011;12678;51.336;12.406;2023-05-10T04:47:39;3.55;;;2.65;;
24517;SDS011;12678;51.336;12.406;2023-05-10T04:50:05;5.10;;;2.42;;
24517;SDS011;12678;51.336;12.406;2023-05-10T04:52:32;4.15;;;2.60;;
24517;SDS011;12678;51.336;12.406;2023-05-10T04:54:57;3.70;;;2.28;;
24517;SDS011;12678;51.336;12.406;2023-05-10T04:57:23;6.07;;;2.92;;
24517;SDS011;12678;51.336;12.406;2023-05-10T04:59:49;3.45;;;2.65;;
24517;SDS011;12678;51.336;12.406;2023-05-10T05:02:14;4.20;;;2.35;;
24517;SDS011;12678;51.336;12.406;2023-05-10T05:04:40;5.63;;;2.78;;
24517;SDS011;12678;51.336;12.406;2023-05-10T05:07:06;4.05;;;2.70;;
24517;SDS011;12678;51.336;12.406;2023-05-10T05:09:31;4.85;;;2.50;;
24517;SDS011;12678;51.336;12.406;2023-05-10T05:11:57;4.90;;;2.75;;
24517;SDS011;12678;51.336;12.406;2023-05-10T05:14:23;7.18;;;2.60;;
24517;SDS011;12678;51.336;12.406;2023-05-10T05:16:50;5.22;;;2.67;;
24517;SDS011;12678;51.336;12.406;2023-05-10T05:19:16;6.90;;;2.90;;
24517;SDS011;12678;51.336;12.406;2023-05-10T05:21:42;5.03;;;2.63;;
24517;SDS011;12678;51.336;12.406;2023-05-10T05:24:08;4.95;;;2.22;;
24517;SDS011;12678;51.336;12.406;2023-05-10T05:26:35;6.78;;;2.70;;
24517;SDS011;12678;51.336;12.406;2023-05-10T05:29:01;4.47;;;2.58;;
24517;SDS011;12678;51.336;12.406;2023-05-10T05:31:27;4.75;;;2.92;;
24517;SDS011;12678;51.336;12.406;2023-05-10T05:33:53;4.22;;;3.05;;
24517;SDS011;12678;51.336;12.406;2023-05-10T05:36:19;3.97;;;2.70;;
24517;SDS011;12678;51.336;12.406;2023-05-10T05:38:45;4.88;;;2.80;;
24517;SDS011;12678;51.336;12.406;2023-05-10T05:41:10;3.72;;;2.80;;
24517;SDS011;12678;51.336;12.406;2023-05-10T05:43:36;3.88;;;2.35;;
24517;SDS011;12678;51.336;12.406;2023-05-10T05:46:02;4.28;;;2.75;;
24517;SDS011;12678;51.336;12.406;2023-05-10T05:48:29;6.18;;;3.00;;
24517;SDS011;12678;51.336;12.406;2023-05-10T05:50:55;6.13;;;2.70;;
24517;SDS011;12678;51.336;12.406;2023-05-10T05:53:24;4.60;;;2.40;;
24517;SDS011;12678;51.336;12.406;2023-05-10T05:55:53;6.05;;;2.63;;
24517;SDS011;12678;51.336;12.406;2023-05-10T05:58:20;5.60;;;2.97;;
24517;SDS011;12678;51.336;12.406;2023-05-10T06:00:46;10.55;;;3.72;;
24517;SDS011;12678;51.336;12.406;2023-05-10T06:03:11;5.30;;;2.90;;
24517;SDS011;12678;51.336;12.406;2023-05-10T06:05:37;2.80;;;2.08;;
24517;SDS011;12678;51.336;12.406;2023-05-10T06:08:03;3.88;;;2.65;;
24517;SDS011;12678;51.336;12.406;2023-05-10T06:10:29;5.20;;;3.05;;
24517;SDS011;12678;51.336;12.406;2023-05-10T06:12:55;4.72;;;2.55;;
24517;SDS011;12678;51.336;12.406;2023-05-10T06:15:21;8.43;;;2.90;;
24517;SDS011;12678;51.336;12.406;2023-05-10T06:17:47;6.70;;;3.22;;
24517;SDS011;12678;51.336;12.406;2023-05-10T06:20:14;5.88;;;3.20;;
24517;SDS011;12678;51.336;12.406;2023-05-10T06:22:41;6.10;;;3.15;;
24517;SDS011;12678;51.336;12.406;2023-05-10T06:25:07;5.18;;;2.95;;
24517;SDS011;12678;51.336;12.406;2023-05-10T06:27:33;5.32;;;3.10;;
24517;SDS011;12678;51.336;12.406;2023-05-10T06:29:59;11.38;;;2.65;;
24517;SDS011;12678;51.336;12.406;2023-05-10T06:32:25;3.53;;;2.75;;
24517;SDS011;12678;51.336;12.406;2023-05-10T06:34:51;5.25;;;2.90;;
24517;SDS011;12678;51.336;12.406;2023-05-10T06:37:17;5.28;;;2.70;;
24517;SDS011;12678;51.336;12.406;2023-05-10T06:39:42;3.85;;;2.70;;
24517;SDS011;12678;51.336;12.406;2023-05-10T06:42:08;4.65;;;3.17;;
24517;SDS011;12678;51.336;12.406;2023-05-10T06:44:34;7.22;;;3.08;;
24517;SDS011;12678;51.336;12.406;2023-05-10T06:47:00;5.15;;;2.65;;
24517;SDS011;12678;51.336;12.406;2023-05-10T06:49:25;4.43;;;2.63;;
24517;SDS011;12678;51.336;12.406;2023-05-10T06:51:51;5.60;;;3.13;;
24517;SDS011;12678;51.336;12.406;2023-05-10T06:54:16;4.95;;;2.47;;
24517;SDS011;12678;51.336;12.406;2023-05-10T06:56:42;7.93;;;3.42;;
24517;SDS011;12678;51.336;12.406;2023-05-10T06:59:08;4.45;;;2.25;;
24517;SDS011;12678;51.336;12.406;2023-05-10T07:01:34;4.90;;;2.40;;
24517;SDS011;12678;51.336;12.406;2023-05-10T07:04:00;5.35;;;2.60;;
24517;SDS011;12678;51.336;12.406;2023-05-10T07:06:25;3.67;;;2.40;;
24517;SDS011;12678;51.336;12.406;2023-05-10T07:08:52;5.88;;;2.38;;
24517;SDS011;12678;51.336;12.406;2023-05-10T07:11:18;4.10;;;2.90;;
24517;SDS011;12678;51.336;12.406;2023-05-10T07:13:43;5.63;;;2.67;;
24517;SDS011;12678;51.336;12.406;2023-05-10T07:16:11;5.32;;;2.60;;
24517;SDS011;12678;51.336;12.406;2023-05-10T07:18:36;7.07;;;2.80;;
24517;SDS011;12678;51.336;12.406;2023-05-10T07:21:02;4.88;;;2.53;;
24517;SDS011;12678;51.336;12.406;2023-05-10T07:23:28;5.97;;;2.88;;
24517;SDS011;12678;51.336;12.406;2023-05-10T07:25:54;5.55;;;2.83;;
24517;SDS011;12678;51.336;12.406;2023-05-10T07:28:22;4.13;;;2.75;;
24517;SDS011;12678;51.336;12.406;2023-05-10T07:30:49;6.15;;;2.88;;
24517;SDS011;12678;51.336;12.406;2023-05-10T07:33:14;27.42;;;4.95;;
24517;SDS011;12678;51.336;12.406;2023-05-10T07:35:40;16.98;;;5.68;;
24517;SDS011;12678;51.336;12.406;2023-05-10T07:38:06;11.15;;;4.63;;
24517;SDS011;12678;51.336;12.406;2023-05-10T07:40:32;8.07;;;4.85;;
24517;SDS011;12678;51.336;12.406;2023-05-10T07:42:58;6.18;;;2.70;;
24517;SDS011;12678;51.336;12.406;2023-05-10T07:45:25;5.15;;;2.80;;
24517;SDS011;12678;51.336;12.406;2023-05-10T07:47:51;7.57;;;2.85;;
24517;SDS011;12678;51.336;12.406;2023-05-10T07:50:17;4.85;;;4.00;;
24517;SDS011;12678;51.336;12.406;2023-05-10T07:52:43;6.60;;;3.17;;
24517;SDS011;12678;51.336;12.406;2023-05-10T07:55:09;5.20;;;2.92;;
24517;SDS011;12678;51.336;12.406;2023-05-10T07:57:34;11.93;;;2.92;;
24517;SDS011;12678;51.336;12.406;2023-05-10T08:00:00;4.22;;;2.83;;
24517;SDS011;12678;51.336;12.406;2023-05-10T08:02:26;4.22;;;2.72;;
24517;SDS011;12678;51.336;12.406;2023-05-10T08:04:52;4.30;;;2.60;;
24517;SDS011;12678;51.336;12.406;2023-05-10T08:07:18;3.70;;;2.30;;
24517;SDS011;12678;51.336;12.406;2023-05-10T08:09:43;6.20;;;2.50;;
24517;SDS011;12678;51.336;12.406;2023-05-10T08:12:09;3.38;;;2.58;;
24517;SDS011;12678;51.336;12.406;2023-05-10T08:14:35;4.25;;;2.63;;
24517;SDS011;12678;51.336;12.406;2023-05-10T08:17:02;11.10;;;3.00;;
24517;SDS011;12678;51.336;12.406;2023-05-10T08:19:28;6.50;;;2.95;;
24517;SDS011;12678;51.336;12.406;2023-05-10T08:21:54;8.10;;;3.60;;
24517;SDS011;12678;51.336;12.406;2023-05-10T08:24:20;4.53;;;3.08;;
24517;SDS011;12678;51.336;12.406;2023-05-10T08:26:46;4.18;;;2.63;;
24517;SDS011;12678;51.336;12.406;2023-05-10T08:29:12;5.00;;;2.90;;
24517;SDS011;12678;51.336;12.406;2023-05-10T08:31:38;3.47;;;2.72;;
24517;SDS011;12678;51.336;12.406;2023-05-10T08:34:04;6.75;;;3.03;;
24517;SDS011;12678;51.336;12.406;2023-05-10T08:36:30;5.18;;;2.88;;
24517;SDS011;12678;51.336;12.406;2023-05-10T08:38:57;3.65;;;2.55;;
24517;SDS011;12678;51.336;12.406;2023-05-10T08:41:23;4.57;;;2.58;;
24517;SDS011;12678;51.336;12.406;2023-05-10T08:43:51;5.78;;;2.70;;
24517;SDS011;12678;51.336;12.406;2023-05-10T08:46:19;13.68;;;2.72;;
24517;SDS011;12678;51.336;12.406;2023-05-10T08:48:47;5.43;;;2.65;;
24517;SDS011;12678;51.336;12.406;2023-05-10T08:51:14;4.38;;;2.63;;
24517;SDS011;12678;51.336;12.406;2023-05-10T08:53:45;4.65;;;2.80;;
24517;SDS011;12678;51.336;12.406;2023-05-10T08:56:11;7.03;;;2.47;;
24517;SDS011;12678;51.336;12.406;2023-05-10T08:58:37;7.28;;;3.05;;
24517;SDS011;12678;51.336;12.406;2023-05-10T09:01:04;6.50;;;3.00;;
24517;SDS011;12678;51.336;12.406;2023-05-10T09:03:30;7.57;;;3.10;;
24517;SDS011;12678;51.336;12.406;2023-05-10T09:05:57;9.65;;;3.10;;
24517;SDS011;12678;51.336;12.406;2023-05-10T09:08:23;3.72;;;2.53;;
24517;SDS011;12678;51.336;12.406;2023-05-10T09:10:53;3.75;;;2.60;;
24517;SDS011;12678;51.336;12.406;2023-05-10T09:13:19;3.85;;;2.60;;
24517;SDS011;12678;51.336;12.406;2023-05-10T09:15:46;14.55;;;3.28;;
24517;SDS011;12678;51.336;12.406;2023-05-10T09:18:13;6.10;;;2.90;;
24517;SDS011;12678;51.336;12.406;2023-05-10T09:20:39;8.82;;;3.30;;
24517;SDS011;12678;51.336;12.406;2023-05-10T09:23:05;7.38;;;3.50;;
24517;SDS011;12678;51.336;12.406;2023-05-10T09:25:31;4.38;;;3.10;;
24517;SDS011;12678;51.336;12.406;2023-05-10T09:27:58;4.35;;;3.22;;
24517;SDS011;12678;51.336;12.406;2023-05-10T09:30:30;5.85;;;3.40;;
24517;SDS011;12678;51.336;12.406;2023-05-10T09:32:57;6.60;;;3.67;;
24517;SDS011;12678;51.336;12.406;2023-05-10T09:35:27;6.20;;;3.45;;
24517;SDS011;12678;51.336;12.406;2023-05-10T09:37:55;5.47;;;4.03;;
24517;SDS011;12678;51.336;12.406;2023-05-10T09:40:22;6.55;;;3.53;;
24517;SDS011;12678;51.336;12.406;2023-05-10T09:42:58;6.93;;;4.07;;
24517;SDS011;12678;51.336;12.406;2023-05-10T09:45:33;6.07;;;3.70;;
24517;SDS011;12678;51.336;12.406;2023-05-10T09:48:01;7.57;;;3.63;;
24517;SDS011;12678;51.336;12.406;2023-05-10T09:50:28;7.97;;;3.80;;
24517;SDS011;12678;51.336;12.406;2023-05-10T09:53:01;6.13;;;3.90;;
24517;SDS011;12678;51.336;12.406;2023-05-10T09:58:06;9.00;;;4.30;;
24517;SDS011;12678;51.336;12.406;2023-05-10T10:00:35;8.63;;;4.43;;
24517;SDS011;12678;51.336;12.406;2023-05-10T10:03:03;8.63;;;4.50;;
24517;SDS011;12678;51.336;12.406;2023-05-10T10:05:30;15.75;;;7.40;;
24517;SDS011;12678;51.336;12.406;2023-05-10T10:08:00;9.02;;;4.40;;
24517;SDS011;12678;51.336;12.406;2023-05-10T10:10:29;8.50;;;4.50;;
24517;SDS011;12678;51.336;12.406;2023-05-10T10:12:57;14.25;;;6.05;;
24517;SDS011;12678;51.336;12.406;2023-05-10T10:15:24;13.23;;;4.88;;
24517;SDS011;12678;51.336;12.406;2023-05-10T10:17:50;8.60;;;4.80;;
24517;SDS011;12678;51.336;12.406;2023-05-10T10:20:17;6.28;;;3.88;;
24517;SDS011;12678;51.336;12.406;2023-05-10T10:22:44;9.15;;;4.53;;
24517;SDS011;12678;51.336;12.406;2023-05-10T10:25:10;7.88;;;4.45;;
24517;SDS011;12678;51.336;12.406;2023-05-10T10:32:42;5.57;;;3.90;;
24517;SDS011;12678;51.336;12.406;2023-05-10T10:35:12;8.65;;;5.03;;
24517;SDS011;12678;51.336;12.406;2023-05-10T10:37:45;6.32;;;4.03;;
24517;SDS011;12678;51.336;12.406;2023-05-10T10:40:31;6.82;;;4.07;;
24517;SDS011;12678;51.336;12.406;2023-05-10T10:42:59;6.63;;;4.22;;
24517;SDS011;12678;51.336;12.406;2023-05-10T10:45:50;7.07;;;4.32;;
24517;SDS011;12678;51.336;12.406;2023-05-10T10:48:35;5.97;;;4.00;;
24517;SDS011;12678;51.336;12.406;2023-05-10T10:51:01;7.90;;;4.13;;
24517;SDS011;12678;51.336;12.406;2023-05-10T10:53:27;8.60;;;4.30;;
24517;SDS011;12678;51.336;12.406;2023-05-10T10:56:02;7.13;;;4.53;;
24517;SDS011;12678;51.336;12.406;2023-05-10T10:58:31;7.00;;;4.68;;
24517;SDS011;12678;51.336;12.406;2023-05-10T11:09:09;8.75;;;4.72;;
24517;SDS011;12678;51.336;12.406;2023-05-10T11:11:37;10.23;;;5.32;;
24517;SDS011;12678;51.336;12.406;2023-05-10T11:14:19;8.13;;;4.38;;
24517;SDS011;12678;51.336;12.406;2023-05-10T11:16:47;10.63;;;4.57;;
24517;SDS011;12678;51.336;12.406;2023-05-10T11:19:14;11.55;;;4.78;;
24517;SDS011;12678;51.336;12.406;2023-05-10T11:21:51;16.55;;;4.53;;
24517;SDS011;12678;51.336;12.406;2023-05-10T11:24:38;10.00;;;5.95;;
24517;SDS011;12678;51.336;12.406;2023-05-10T11:27:03;10.00;;;5.53;;
24517;SDS011;12678;51.336;12.406;2023-05-10T11:29:30;9.40;;;5.47;;
24517;SDS011;12678;51.336;12.406;2023-05-10T11:31:59;8.30;;;5.22;;
24517;SDS011;12678;51.336;12.406;2023-05-10T11:34:29;9.57;;;5.28;;
24517;SDS011;12678;51.336;12.406;2023-05-10T11:36:56;8.30;;;5.03;;
24517;SDS011;12678;51.336;12.406;2023-05-10T11:39:29;8.35;;;5.00;;
24517;SDS011;12678;51.336;12.406;2023-05-10T11:41:56;7.85;;;4.22;;
24517;SDS011;12678;51.336;12.406;2023-05-10T11:44:22;7.13;;;4.68;;
24517;SDS011;12678;51.336;12.406;2023-05-10T11:46:48;9.57;;;5.38;;
24517;SDS011;12678;51.336;12.406;2023-05-10T11:49:14;7.40;;;5.03;;
24517;SDS011;12678;51.336;12.406;2023-05-10T11:51:40;10.82;;;5.93;;
24517;SDS011;12678;51.336;12.406;2023-05-10T11:54:08;7.60;;;5.03;;
24517;SDS011;12678;51.336;12.406;2023-05-10T11:56:36;8.10;;;5.25;;
24517;SDS011;12678;51.336;12.406;2023-05-10T11:59:05;12.63;;;4.70;;
24517;SDS011;12678;51.336;12.406;2023-05-10T12:01:33;9.25;;;5.32;;
24517;SDS011;12678;51.336;12.406;2023-05-10T12:03:59;6.90;;;4.63;;
24517;SDS011;12678;51.336;12.406;2023-05-10T12:06:26;11.23;;;4.75;;
24517;SDS011;12678;51.336;12.406;2023-05-10T12:08:54;7.47;;;4.95;;
24517;SDS011;12678;51.336;12.406;2023-05-10T12:11:20;11.45;;;4.60;;
24517;SDS011;12678;51.336;12.406;2023-05-10T12:13:50;9.43;;;5.30;;
24517;SDS011;12678;51.336;12.406;2023-05-10T12:16:16;10.27;;;5.07;;
24517;SDS011;12678;51.336;12.406;2023-05-10T12:18:44;9.70;;;5.55;;
24517;SDS011;12678;51.336;12.406;2023-05-10T12:21:10;15.73;;;5.90;;
24517;SDS011;12678;51.336;12.406;2023-05-10T12:23:37;9.70;;;5.93;;
24517;SDS011;12678;51.336;12.406;2023-05-10T12:26:06;9.75;;;5.40;;
24517;SDS011;12678;51.336;12.406;2023-05-10T12:28:38;8.05;;;4.93;;
24517;SDS011;12678;51.336;12.406;2023-05-10T12:31:07;9.55;;;5.60;;
24517;SDS011;12678;51.336;12.406;2023-05-10T12:33:40;7.97;;;5.28;;
24517;SDS011;12678;51.336;12.406;2023-05-10T12:36:11;9.75;;;5.78;;
24517;SDS011;12678;51.336;12.406;2023-05-10T12:38:39;11.13;;;5.30;;
24517;SDS011;12678;51.336;12.406;2023-05-10T12:41:07;6.97;;;5.00;;
24517;SDS011;12678;51.336;12.406;2023-05-10T12:43:37;10.98;;;5.53;;
24517;SDS011;12678;51.336;12.406;2023-05-10T12:46:07;8.27;;;4.78;;
24517;SDS011;12678;51.336;12.406;2023-05-10T12:48:38;10.25;;;5.50;;
24517;SDS011;12678;51.336;12.406;2023-05-10T12:51:05;9.48;;;5.57;;
24517;SDS011;12678;51.336;12.406;2023-05-10T12:53:37;7.97;;;4.78;;
24517;SDS011;12678;51.336;12.406;2023-05-10T12:56:07;7.05;;;4.68;;
24517;SDS011;12678;51.336;12.406;2023-05-10T12:58:33;8.18;;;4.97;;
24517;SDS011;12678;51.336;12.406;2023-05-10T13:01:00;8.45;;;5.40;;
24517;SDS011;12678;51.336;12.406;2023-05-10T13:03:25;8.30;;;4.57;;
24517;SDS011;12678;51.336;12.406;2023-05-10T13:05:51;8.43;;;5.13;;
24517;SDS011;12678;51.336;12.406;2023-05-10T13:08:17;8.13;;;4.88;;
24517;SDS011;12678;51.336;12.406;2023-05-10T13:10:42;6.25;;;4.38;;
24517;SDS011;12678;51.336;12.406;2023-05-10T13:13:08;6.53;;;4.20;;
24517;SDS011;12678;51.336;12.406;2023-05-10T13:15:34;6.68;;;4.65;;
24517;SDS011;12678;51.336;12.406;2023-05-10T13:18:00;7.88;;;5.10;;
24517;SDS011;12678;51.336;12.406;2023-05-10T13:20:26;7.43;;;4.53;;
24517;SDS011;12678;51.336;12.406;2023-05-10T13:22:52;5.85;;;4.10;;
24517;SDS011;12678;51.336;12.406;2023-05-10T13:25:18;7.80;;;4.45;;
24517;SDS011;12678;51.336;12.406;2023-05-10T13:27:43;5.45;;;3.50;;
24517;SDS011;12678;51.336;12.406;2023-05-10T13:30:09;6.80;;;4.40;;
24517;SDS011;12678;51.336;12.406;2023-05-10T13:32:36;6.10;;;4.35;;
24517;SDS011;12678;51.336;12.406;2023-05-10T13:35:02;7.10;;;4.25;;
24517;SDS011;12678;51.336;12.406;2023-05-10T13:37:29;6.97;;;4.00;;
24517;SDS011;12678;51.336;12.406;2023-05-10T13:39:55;6.13;;;3.63;;
24517;SDS011;12678;51.336;12.406;2023-05-10T13:42:22;6.18;;;4.03;;
24517;SDS011;12678;51.336;12.406;2023-05-10T13:44:48;7.10;;;3.53;;
24517;SDS011;12678;51.336;12.406;2023-05-10T13:47:14;7.10;;;4.22;;
24517;SDS011;12678;51.336;12.406;2023-05-10T13:49:40;4.78;;;3.47;;
24517;SDS011;12678;51.336;12.406;2023-05-10T13:52:06;5.93;;;3.65;;
24517;SDS011;12678;51.336;12.406;2023-05-10T13:54:38;6.13;;;4.00;;
24517;SDS011;12678;51.336;12.406;2023-05-10T13:57:03;6.40;;;4.20;;
24517;SDS011;12678;51.336;12.406;2023-05-10T13:59:29;7.32;;;3.72;;
24517;SDS011;12678;51.336;12.406;2023-05-10T14:01:59;4.53;;;3.25;;
24517;SDS011;12678;51.336;12.406;2023-05-10T14:04:28;5.38;;;3.17;;
24517;SDS011;12678;51.336;12.406;2023-05-10T14:06:54;5.00;;;3.13;;
24517;SDS011;12678;51.336;12.406;2023-05-10T14:09:20;5.97;;;3.00;;
24517;SDS011;12678;51.336;12.406;2023-05-10T14:11:46;4.60;;;3.28;;
24517;SDS011;12678;51.336;12.406;2023-05-10T14:14:12;5.97;;;3.25;;
24517;SDS011;12678;51.336;12.406;2023-05-10T14:16:41;4.55;;;3.30;;
24517;SDS011;12678;51.336;12.406;2023-05-10T14:19:08;3.63;;;2.67;;
24517;SDS011;12678;51.336;12.406;2023-05-10T14:21:34;2.90;;;2.28;;
24517;SDS011;12678;51.336;12.406;2023-05-10T14:24:00;5.97;;;2.75;;
24517;SDS011;12678;51.336;12.406;2023-05-10T14:26:26;3.42;;;2.42;;
24517;SDS011;12678;51.336;12.406;2023-05-10T14:28:52;3.40;;;2.72;;
24517;SDS011;12678;51.336;12.406;2023-05-10T14:31:18;4.05;;;2.88;;
24517;SDS011;12678;51.336;12.406;2023-05-10T14:33:45;4.65;;;3.33;;
24517;SDS011;12678;51.336;12.406;2023-05-10T14:36:11;7.20;;;3.63;;
24517;SDS011;12678;51.336;12.406;2023-05-10T14:38:38;5.50;;;3.50;;
24517;SDS011;12678;51.336;12.406;2023-05-10T14:41:04;5.30;;;3.35;;
24517;SDS011;12678;51.336;12.406;2023-05-10T14:43:29;4.72;;;3.38;;
24517;SDS011;12678;51.336;12.406;2023-05-10T14:45:55;5.63;;;3.85;;
24517;SDS011;12678;51.336;12.406;2023-05-10T14:48:21;5.00;;;3.15;;
24517;SDS011;12678;51.336;12.406;2023-05-10T14:50:46;5.18;;;3.70;;
24517;SDS011;12678;51.336;12.406;2023-05-10T14:53:12;6.55;;;3.92;;
24517;SDS011;12678;51.336;12.406;2023-05-10T14:55:38;6.90;;;4.18;;
24517;SDS011;12678;51.336;12.406;2023-05-10T14:58:04;6.55;;;4.10;;
24517;SDS011;12678;51.336;12.406;2023-05-10T15:00:30;5.60;;;3.80;;
24517;SDS011;12678;51.336;12.406;2023-05-10T15:02:55;6.10;;;3.97;;
24517;SDS011;12678;51.336;12.406;2023-05-10T15:05:21;5.45;;;4.13;;
24517;SDS011;12678;51.336;12.406;2023-05-10T15:07:47;3.90;;;2.97;;